sensor_id;sensor_type;location;lat;lon;timestamp;temperature;humidity
18444;DHT22;9350;53.176;8.194;2023-04-30T00:00:42;7.30;99.90
18444;DHT22;9350;53.176;8.194;2023-04-30T00:03:09;7.20;99.90
18444;DHT22;9350;53.176;8.194;2023-04-30T00:05:37;7.30;99.90
18444;DHT22;9350;53.176;8.194;2023-04-30T00:08:04;7.20;99.90
18444;DHT22;9350;53.176;8.194;2023-04-30T00:10:30;7.20;99.90
18444;DHT22;9350;53.176;8.194;2023-04-30T00:12:57;7.20;99.90
18444;DHT22;9350;53.176;8.194;2023-04-30T00:15:24;7.10;99.90
18444;DHT22;9350;53.176;8.194;2023-04-30T00:17:51;7.10;99.90
18444;DHT22;9350;53.176;8.194;2023-04-30T00:20:18;7.10;99.90
18444;DHT22;9350;53.176;8.194;2023-04-30T00:22:46;7.20;99.90
18444;DHT22;9350;53.176;8.194;2023-04-30T00:25:13;7.10;99.90
18444;DHT22;9350;53.176;8.194;2023-04-30T00:27:40;7.10;99.90
18444;DHT22;9350;53.176;8.194;2023-04-30T00:30:08;7.10;99.90
18444;DHT22;9350;53.176;8.194;2023-04-30T00:32:34;7.10;99.90
18444;DHT22;9350;53.176;8.194;2023-04-30T00:35:01;7.00;99.90
18444;DHT22;9350;53.176;8.194;2023-04-30T00:37:28;7.00;99.90
18444;DHT22;9350;53.176;8.194;2023-04-30T00:39:56;6.90;99.90
18444;DHT22;9350;53.176;8.194;2023-04-30T00:42:23;7.00;99.90
18444;DHT22;9350;53.176;8.194;2023-04-30T00:44:50;6.90;99.90
18444;DHT22;9350;53.176;8.194;2023-04-30T00:47:16;6.90;99.90
18444;DHT22;9350;53.176;8.194;2023-04-30T00:49:43;6.80;99.90
18444;DHT22;9350;53.176;8.194;2023-04-30T00:52:10;6.80;99.90
18444;DHT22;9350;53.176;8.194;2023-04-30T00:54:37;6.90;99.90
18444;DHT22;9350;53.176;8.194;2023-04-30T00:57:06;6.80;99.90
18444;DHT22;9350;53.176;8.194;2023-04-30T00:59:35;6.80;99.90
18444;DHT22;9350;53.176;8.194;2023-04-30T01:02:02;6.80;99.90
18444;DHT22;9350;53.176;8.194;2023-04-30T01:04:29;6.80;99.90
18444;DHT22;9350;53.176;8.194;2023-04-30T01:06:56;6.80;99.90
18444;DHT22;9350;53.176;8.194;2023-04-30T01:09:23;6.80;99.90
18444;DHT22;9350;53.176;8.194;2023-04-30T01:11:57;6.70;99.90
18444;DHT22;9350;53.176;8.194;2023-04-30T01:14:32;6.60;99.90
18444;DHT22;9350;53.176;8.194;2023-04-30T01:17:07;6.70;99.90
18444;DHT22;9350;53.176;8.194;2023-04-30T01:19:41;6.80;99.90
18444;DHT22;9350;53.176;8.194;2023-04-30T01:22:12;6.60;99.90
18444;DHT22;9350;53.176;8.194;2023-04-30T01:24:59;6.60;99.90
18444;DHT22;9350;53.176;8.194;2023-04-30T01:27:36;6.60;99.90
18444;DHT22;9350;53.176;8.194;2023-04-30T01:30:07;6.60;99.90
18444;DHT22;9350;53.176;8.194;2023-04-30T01:32:34;6.50;99.90
18444;DHT22;9350;53.176;8.194;2023-04-30T01:35:01;6.60;99.90
18444;DHT22;9350;53.176;8.194;2023-04-30T01:37:32;6.60;99.90
18444;DHT22;9350;53.176;8.194;2023-04-30T01:40:08;6.50;99.90
18444;DHT22;9350;53.176;8.194;2023-04-30T01:42:44;6.50;99.90
18444;DHT22;9350;53.176;8.194;2023-04-30T01:45:32;6.40;99.90
18444;DHT22;9350;53.176;8.194;2023-04-30T01:48:11;6.40;99.90
18444;DHT22;9350;53.176;8.194;2023-04-30T01:50:47;6.40;99.90
18444;DHT22;9350;53.176;8.194;2023-04-30T01:53:23;6.40;99.90
18444;DHT22;9350;53.176;8.194;2023-04-30T01:55:57;6.40;99.90
18444;DHT22;9350;53.176;8.194;2023-04-30T01:58:25;6.40;99.90
18444;DHT22;9350;53.176;8.194;2023-04-30T02:00:54;6.30;99.90
18444;DHT22;9350;53.176;8.194;2023-04-30T02:03:21;6.30;99.90
18444;DHT22;9350;53.176;8.194;2023-04-30T02:05:48;6.20;99.90
18444;DHT22;9350;53.176;8.194;2023-04-30T02:08:15;6.20;99.90
18444;DHT22;9350;53.176;8.194;2023-04-30T02:10:41;6.20;99.90
18444;DHT22;9350;53.176;8.194;2023-04-30T02:13:09;6.20;99.90
18444;DHT22;9350;53.176;8.194;2023-04-30T02:15:35;6.30;99.90
18444;DHT22;9350;53.176;8.194;2023-04-30T02:18:03;6.30;99.90
18444;DHT22;9350;53.176;8.194;2023-04-30T02:20:30;6.30;99.90
18444;DHT22;9350;53.176;8.194;2023-04-30T02:22:57;6.20;99.90
18444;DHT22;9350;53.176;8.194;2023-04-30T02:25:23;6.20;99.90
18444;DHT22;9350;53.176;8.194;2023-04-30T02:27:50;6.10;99.90
18444;DHT22;9350;53.176;8.194;2023-04-30T02:30:17;6.20;99.90
18444;DHT22;9350;53.176;8.194;2023-04-30T02:32:45;6.10;99.90
18444;DHT22;9350;53.176;8.194;2023-04-30T02:35:13;6.10;99.90
18444;DHT22;9350;53.176;8.194;2023-04-30T02:37:40;6.10;99.90
18444;DHT22;9350;53.176;8.194;2023-04-30T02:40:08;6.00;99.90
18444;DHT22;9350;53.176;8.194;2023-04-30T02:42:35;6.00;99.90
18444;DHT22;9350;53.176;8.194;2023-04-30T02:45:01;6.00;99.90
18444;DHT22;9350;53.176;8.194;2023-04-30T02:47:28;6.00;99.90
18444;DHT22;9350;53.176;8.194;2023-04-30T02:49:55;5.90;99.90
18444;DHT22;9350;53.176;8.194;2023-04-30T02:52:23;6.00;99.90
18444;DHT22;9350;53.176;8.194;2023-04-30T02:54:50;6.00;99.90
18444;DHT22;9350;53.176;8.194;2023-04-30T02:57:17;5.90;99.90
18444;DHT22;9350;53.176;8.194;2023-04-30T02:59:45;5.90;99.90
18444;DHT22;9350;53.176;8.194;2023-04-30T03:02:11;5.90;99.90
18444;DHT22;9350;53.176;8.194;2023-04-30T03:04:38;5.90;99.90
18444;DHT22;9350;53.176;8.194;2023-04-30T03:07:05;5.80;99.90
18444;DHT22;9350;53.176;8.194;2023-04-30T03:09:33;5.80;99.90
18444;DHT22;9350;53.176;8.194;2023-04-30T03:12:00;5.80;99.90
18444;DHT22;9350;53.176;8.194;2023-04-30T03:14:27;5.80;99.90
18444;DHT22;9350;53.176;8.194;2023-04-30T03:16:54;5.80;99.90
18444;DHT22;9350;53.176;8.194;2023-04-30T03:19:20;5.70;99.90
18444;DHT22;9350;53.176;8.194;2023-04-30T03:21:49;5.70;99.90
18444;DHT22;9350;53.176;8.194;2023-04-30T03:24:16;5.80;99.90
18444;DHT22;9350;53.176;8.194;2023-04-30T03:26:44;5.80;99.90
18444;DHT22;9350;53.176;8.194;2023-04-30T03:29:11;5.70;99.90
18444;DHT22;9350;53.176;8.194;2023-04-30T03:31:38;5.70;99.90
18444;DHT22;9350;53.176;8.194;2023-04-30T03:34:04;5.70;99.90
18444;DHT22;9350;53.176;8.194;2023-04-30T03:36:31;5.70;99.90
18444;DHT22;9350;53.176;8.194;2023-04-30T03:38:59;5.60;99.90
18444;DHT22;9350;53.176;8.194;2023-04-30T03:41:26;5.60;99.90
18444;DHT22;9350;53.176;8.194;2023-04-30T03:43:54;5.60;99.90
18444;DHT22;9350;53.176;8.194;2023-04-30T03:46:21;5.60;99.90
18444;DHT22;9350;53.176;8.194;2023-04-30T03:48:48;5.50;99.90
18444;DHT22;9350;53.176;8.194;2023-04-30T03:51:15;5.50;99.90
18444;DHT22;9350;53.176;8.194;2023-04-30T03:53:42;5.50;99.90
18444;DHT22;9350;53.176;8.194;2023-04-30T03:56:09;5.60;99.90
18444;DHT22;9350;53.176;8.194;2023-04-30T03:58:36;5.50;99.90
18444;DHT22;9350;53.176;8.194;2023-04-30T04:01:04;5.50;99.90
18444;DHT22;9350;53.176;8.194;2023-04-30T04:03:33;5.50;99.90
18444;DHT22;9350;53.176;8.194;2023-04-30T04:05:59;5.50;99.90
18444;DHT22;9350;53.176;8.194;2023-04-30T04:08:26;5.50;99.90
18444;DHT22;9350;53.176;8.194;2023-04-30T04:10:53;5.60;99.90
18444;DHT22;9350;53.176;8.194;2023-04-30T04:13:20;5.50;99.90
18444;DHT22;9350;53.176;8.194;2023-04-30T04:15:46;5.50;99.90
18444;DHT22;9350;53.176;8.194;2023-04-30T04:18:15;5.50;99.90
18444;DHT22;9350;53.176;8.194;2023-04-30T04:20:41;5.50;99.90
18444;DHT22;9350;53.176;8.194;2023-04-30T04:23:08;5.60;99.90
18444;DHT22;9350;53.176;8.194;2023-04-30T04:25:35;5.60;99.90
18444;DHT22;9350;53.176;8.194;2023-04-30T04:28:04;5.50;99.90
18444;DHT22;9350;53.176;8.194;2023-04-30T04:30:30;5.50;99.90
18444;DHT22;9350;53.176;8.194;2023-04-30T04:32:58;5.50;99.90
18444;DHT22;9350;53.176;8.194;2023-04-30T04:35:26;5.50;99.90
18444;DHT22;9350;53.176;8.194;2023-04-30T04:37:53;5.50;99.90
18444;DHT22;9350;53.176;8.194;2023-04-30T04:40:20;5.50;99.90
18444;DHT22;9350;53.176;8.194;2023-04-30T04:42:48;5.50;99.90
18444;DHT22;9350;53.176;8.194;2023-04-30T04:45:15;5.60;99.90
18444;DHT22;9350;53.176;8.194;2023-04-30T04:47:44;5.60;99.90
18444;DHT22;9350;53.176;8.194;2023-04-30T04:50:11;5.70;99.90
18444;DHT22;9350;53.176;8.194;2023-04-30T04:52:40;5.80;99.90
18444;DHT22;9350;53.176;8.194;2023-04-30T04:55:07;5.80;99.90
18444;DHT22;9350;53.176;8.194;2023-04-30T04:57:34;5.90;99.90
18444;DHT22;9350;53.176;8.194;2023-04-30T05:00:01;5.90;99.90
18444;DHT22;9350;53.176;8.194;2023-04-30T05:02:30;6.00;99.90
18444;DHT22;9350;53.176;8.194;2023-04-30T05:04:57;6.00;99.90
18444;DHT22;9350;53.176;8.194;2023-04-30T05:07:24;6.10;99.90
18444;DHT22;9350;53.176;8.194;2023-04-30T05:09:52;6.10;99.90
18444;DHT22;9350;53.176;8.194;2023-04-30T05:12:19;6.10;99.90
18444;DHT22;9350;53.176;8.194;2023-04-30T05:14:45;6.20;99.90
18444;DHT22;9350;53.176;8.194;2023-04-30T05:17:13;6.20;99.90
18444;DHT22;9350;53.176;8.194;2023-04-30T05:19:40;6.30;99.90
18444;DHT22;9350;53.176;8.194;2023-04-30T05:22:07;6.30;99.90
18444;DHT22;9350;53.176;8.194;2023-04-30T05:24:34;6.30;99.90
18444;DHT22;9350;53.176;8.194;2023-04-30T05:27:02;6.30;99.90
18444;DHT22;9350;53.176;8.194;2023-04-30T05:29:30;6.40;99.90
18444;DHT22;9350;53.176;8.194;2023-04-30T05:31:57;6.40;99.90
18444;DHT22;9350;53.176;8.194;2023-04-30T05:34:23;6.40;99.90
18444;DHT22;9350;53.176;8.194;2023-04-30T05:36:50;6.50;99.90
18444;DHT22;9350;53.176;8.194;2023-04-30T05:39:17;6.60;99.90
18444;DHT22;9350;53.176;8.194;2023-04-30T05:41:44;6.70;99.90
18444;DHT22;9350;53.176;8.194;2023-04-30T05:44:12;6.80;99.90
18444;DHT22;9350;53.176;8.194;2023-04-30T05:46:39;6.80;99.90
18444;DHT22;9350;53.176;8.194;2023-04-30T05:49:06;6.90;99.90
18444;DHT22;9350;53.176;8.194;2023-04-30T05:51:33;7.00;99.90
18444;DHT22;9350;53.176;8.194;2023-04-30T05:54:00;7.00;99.90
18444;DHT22;9350;53.176;8.194;2023-04-30T05:56:26;7.10;99.90
18444;DHT22;9350;53.176;8.194;2023-04-30T05:58:53;7.20;99.90
18444;DHT22;9350;53.176;8.194;2023-04-30T06:01:22;7.20;99.90
18444;DHT22;9350;53.176;8.194;2023-04-30T06:03:48;7.30;99.90
18444;DHT22;9350;53.176;8.194;2023-04-30T06:06:15;7.40;99.90
18444;DHT22;9350;53.176;8.194;2023-04-30T06:08:42;7.40;99.90
18444;DHT22;9350;53.176;8.194;2023-04-30T06:11:10;7.50;99.90
18444;DHT22;9350;53.176;8.194;2023-04-30T06:13:38;7.60;99.90
18444;DHT22;9350;53.176;8.194;2023-04-30T06:16:05;7.60;99.90
18444;DHT22;9350;53.176;8.194;2023-04-30T06:18:34;7.60;99.90
18444;DHT22;9350;53.176;8.194;2023-04-30T06:21:01;7.80;99.90
18444;DHT22;9350;53.176;8.194;2023-04-30T06:23:27;7.80;99.90
18444;DHT22;9350;53.176;8.194;2023-04-30T06:25:54;7.80;99.90
18444;DHT22;9350;53.176;8.194;2023-04-30T06:28:21;7.90;99.90
18444;DHT22;9350;53.176;8.194;2023-04-30T06:30:49;8.00;99.90
18444;DHT22;9350;53.176;8.194;2023-04-30T06:33:16;8.00;99.90
18444;DHT22;9350;53.176;8.194;2023-04-30T06:35:44;8.10;99.90
18444;DHT22;9350;53.176;8.194;2023-04-30T06:38:11;8.10;99.90
18444;DHT22;9350;53.176;8.194;2023-04-30T06:40:38;8.20;99.90
18444;DHT22;9350;53.176;8.194;2023-04-30T06:43:05;8.20;99.90
18444;DHT22;9350;53.176;8.194;2023-04-30T06:45:32;8.40;99.90
18444;DHT22;9350;53.176;8.194;2023-04-30T06:47:59;8.40;99.90
18444;DHT22;9350;53.176;8.194;2023-04-30T06:50:26;8.50;99.90
18444;DHT22;9350;53.176;8.194;2023-04-30T06:52:54;8.40;99.90
18444;DHT22;9350;53.176;8.194;2023-04-30T06:55:21;8.50;99.90
18444;DHT22;9350;53.176;8.194;2023-04-30T06:57:48;8.60;99.90
18444;DHT22;9350;53.176;8.194;2023-04-30T07:00:15;8.60;99.90
18444;DHT22;9350;53.176;8.194;2023-04-30T07:02:42;8.60;99.90
18444;DHT22;9350;53.176;8.194;2023-04-30T07:05:12;8.50;99.90
18444;DHT22;9350;53.176;8.194;2023-04-30T07:07:38;8.60;99.90
18444;DHT22;9350;53.176;8.194;2023-04-30T07:10:07;8.60;99.90
18444;DHT22;9350;53.176;8.194;2023-04-30T07:12:34;8.70;99.90
18444;DHT22;9350;53.176;8.194;2023-04-30T07:15:00;8.80;99.90
18444;DHT22;9350;53.176;8.194;2023-04-30T07:17:27;8.80;99.90
18444;DHT22;9350;53.176;8.194;2023-04-30T07:19:54;8.90;99.90
18444;DHT22;9350;53.176;8.194;2023-04-30T07:22:21;9.00;99.90
18444;DHT22;9350;53.176;8.194;2023-04-30T07:24:48;9.00;99.90
18444;DHT22;9350;53.176;8.194;2023-04-30T07:27:16;9.00;99.90
18444;DHT22;9350;53.176;8.194;2023-04-30T07:29:43;9.10;99.90
18444;DHT22;9350;53.176;8.194;2023-04-30T07:32:09;9.10;99.90
18444;DHT22;9350;53.176;8.194;2023-04-30T07:34:37;9.20;99.90
18444;DHT22;9350;53.176;8.194;2023-04-30T07:37:04;9.20;99.90
18444;DHT22;9350;53.176;8.194;2023-04-30T07:39:30;9.20;99.90
18444;DHT22;9350;53.176;8.194;2023-04-30T07:41:57;9.20;99.90
18444;DHT22;9350;53.176;8.194;2023-04-30T07:44:25;9.20;99.90
18444;DHT22;9350;53.176;8.194;2023-04-30T07:46:52;9.30;99.90
18444;DHT22;9350;53.176;8.194;2023-04-30T07:49:19;9.30;99.90
18444;DHT22;9350;53.176;8.194;2023-04-30T07:51:46;9.30;99.90
18444;DHT22;9350;53.176;8.194;2023-04-30T07:54:13;9.30;99.90
18444;DHT22;9350;53.176;8.194;2023-04-30T07:56:40;9.40;99.90
18444;DHT22;9350;53.176;8.194;2023-04-30T07:59:07;9.40;99.90
18444;DHT22;9350;53.176;8.194;2023-04-30T08:01:35;9.40;99.90
18444;DHT22;9350;53.176;8.194;2023-04-30T08:04:02;9.40;99.90
18444;DHT22;9350;53.176;8.194;2023-04-30T08:06:28;9.50;99.90
18444;DHT22;9350;53.176;8.194;2023-04-30T08:08:56;9.40;99.90
18444;DHT22;9350;53.176;8.194;2023-04-30T08:11:23;9.40;99.90
18444;DHT22;9350;53.176;8.194;2023-04-30T08:13:49;9.40;99.90
18444;DHT22;9350;53.176;8.194;2023-04-30T08:16:16;9.50;99.90
18444;DHT22;9350;53.176;8.194;2023-04-30T08:18:44;9.50;99.90
18444;DHT22;9350;53.176;8.194;2023-04-30T08:21:11;9.60;99.90
18444;DHT22;9350;53.176;8.194;2023-04-30T08:23:38;9.70;99.90
18444;DHT22;9350;53.176;8.194;2023-04-30T08:26:05;9.70;99.90
18444;DHT22;9350;53.176;8.194;2023-04-30T08:28:32;9.70;99.90
18444;DHT22;9350;53.176;8.194;2023-04-30T08:30:59;9.70;99.90
18444;DHT22;9350;53.176;8.194;2023-04-30T08:33:26;9.60;99.90
18444;DHT22;9350;53.176;8.194;2023-04-30T08:35:54;9.70;99.90
18444;DHT22;9350;53.176;8.194;2023-04-30T08:38:20;9.70;99.90
18444;DHT22;9350;53.176;8.194;2023-04-30T08:40:51;9.70;99.90
18444;DHT22;9350;53.176;8.194;2023-04-30T08:43:21;9.80;99.90
18444;DHT22;9350;53.176;8.194;2023-04-30T08:45:50;9.80;99.90
18444;DHT22;9350;53.176;8.194;2023-04-30T08:48:18;9.80;99.90
18444;DHT22;9350;53.176;8.194;2023-04-30T08:50:47;9.80;99.90
18444;DHT22;9350;53.176;8.194;2023-04-30T08:53:15;9.80;99.90
18444;DHT22;9350;53.176;8.194;2023-04-30T08:55:42;9.90;99.90
18444;DHT22;9350;53.176;8.194;2023-04-30T08:58:09;10.10;99.90
18444;DHT22;9350;53.176;8.194;2023-04-30T09:00:37;10.10;99.90
18444;DHT22;9350;53.176;8.194;2023-04-30T09:03:05;10.30;99.90
18444;DHT22;9350;53.176;8.194;2023-04-30T09:05:33;10.40;99.90
18444;DHT22;9350;53.176;8.194;2023-04-30T09:08:00;10.50;99.90
18444;DHT22;9350;53.176;8.194;2023-04-30T09:10:31;10.50;99.90
18444;DHT22;9350;53.176;8.194;2023-04-30T09:12:59;10.60;99.90
18444;DHT22;9350;53.176;8.194;2023-04-30T09:15:26;10.60;99.90
18444;DHT22;9350;53.176;8.194;2023-04-30T09:18:06;10.60;99.90
18444;DHT22;9350;53.176;8.194;2023-04-30T09:20:33;10.70;99.90
18444;DHT22;9350;53.176;8.194;2023-04-30T09:23:08;10.80;99.90
18444;DHT22;9350;53.176;8.194;2023-04-30T09:25:40;10.90;99.90
18444;DHT22;9350;53.176;8.194;2023-04-30T09:28:08;11.00;99.90
18444;DHT22;9350;53.176;8.194;2023-04-30T09:30:36;11.00;99.90
18444;DHT22;9350;53.176;8.194;2023-04-30T09:33:03;11.10;99.90
18444;DHT22;9350;53.176;8.194;2023-04-30T09:35:31;11.10;99.90
18444;DHT22;9350;53.176;8.194;2023-04-30T09:37:59;11.20;99.90
18444;DHT22;9350;53.176;8.194;2023-04-30T09:40:34;11.20;99.90
18444;DHT22;9350;53.176;8.194;2023-04-30T09:43:03;11.20;99.90
18444;DHT22;9350;53.176;8.194;2023-04-30T09:45:41;11.20;99.90
18444;DHT22;9350;53.176;8.194;2023-04-30T09:48:09;11.10;99.90
18444;DHT22;9350;53.176;8.194;2023-04-30T09:50:37;11.10;99.90
18444;DHT22;9350;53.176;8.194;2023-04-30T09:53:05;11.10;99.90
18444;DHT22;9350;53.176;8.194;2023-04-30T09:55:34;11.20;99.90
18444;DHT22;9350;53.176;8.194;2023-04-30T09:58:04;11.30;99.90
18444;DHT22;9350;53.176;8.194;2023-04-30T10:00:33;11.40;99.90
18444;DHT22;9350;53.176;8.194;2023-04-30T10:03:04;11.40;99.90
18444;DHT22;9350;53.176;8.194;2023-04-30T10:05:32;11.40;99.90
18444;DHT22;9350;53.176;8.194;2023-04-30T10:08:00;11.40;99.90
18444;DHT22;9350;53.176;8.194;2023-04-30T10:10:28;11.40;99.90
18444;DHT22;9350;53.176;8.194;2023-04-30T10:13:01;11.60;99.90
18444;DHT22;9350;53.176;8.194;2023-04-30T10:15:33;11.60;99.90
18444;DHT22;9350;53.176;8.194;2023-04-30T10:18:05;11.60;99.90
18444;DHT22;9350;53.176;8.194;2023-04-30T10:20:35;11.60;99.90
18444;DHT22;9350;53.176;8.194;2023-04-30T10:23:03;11.70;99.90
18444;DHT22;9350;53.176;8.194;2023-04-30T10:25:31;11.80;99.90
18444;DHT22;9350;53.176;8.194;2023-04-30T10:27:58;11.80;99.90
18444;DHT22;9350;53.176;8.194;2023-04-30T10:30:25;11.80;99.90
18444;DHT22;9350;53.176;8.194;2023-04-30T10:33:02;11.80;99.90
18444;DHT22;9350;53.176;8.194;2023-04-30T10:35:38;11.90;99.90
18444;DHT22;9350;53.176;8.194;2023-04-30T10:38:17;12.00;99.90
18444;DHT22;9350;53.176;8.194;2023-04-30T10:40:47;12.10;99.90
18444;DHT22;9350;53.176;8.194;2023-04-30T10:43:16;12.20;99.90
18444;DHT22;9350;53.176;8.194;2023-04-30T10:45:44;12.10;99.90
18444;DHT22;9350;53.176;8.194;2023-04-30T10:48:14;12.20;99.90
18444;DHT22;9350;53.176;8.194;2023-04-30T10:50:42;12.10;99.90
18444;DHT22;9350;53.176;8.194;2023-04-30T10:53:11;12.10;99.90
18444;DHT22;9350;53.176;8.194;2023-04-30T10:55:45;12.20;99.90
18444;DHT22;9350;53.176;8.194;2023-04-30T10:58:24;12.20;99.90
18444;DHT22;9350;53.176;8.194;2023-04-30T11:00:59;12.20;99.90
18444;DHT22;9350;53.176;8.194;2023-04-30T11:03:29;12.20;99.90
18444;DHT22;9350;53.176;8.194;2023-04-30T11:05:57;12.10;99.90
18444;DHT22;9350;53.176;8.194;2023-04-30T11:08:34;12.00;99.90
18444;DHT22;9350;53.176;8.194;2023-04-30T11:11:02;12.10;99.90
18444;DHT22;9350;53.176;8.194;2023-04-30T11:13:38;12.10;99.90
18444;DHT22;9350;53.176;8.194;2023-04-30T11:16:06;12.20;99.90
18444;DHT22;9350;53.176;8.194;2023-04-30T11:18:40;12.20;99.90
18444;DHT22;9350;53.176;8.194;2023-04-30T11:21:08;12.30;99.90
18444;DHT22;9350;53.176;8.194;2023-04-30T11:23:36;12.30;99.90
18444;DHT22;9350;53.176;8.194;2023-04-30T11:26:06;12.30;99.90
18444;DHT22;9350;53.176;8.194;2023-04-30T11:28:33;12.30;99.90
18444;DHT22;9350;53.176;8.194;2023-04-30T11:31:00;12.30;99.90
18444;DHT22;9350;53.176;8.194;2023-04-30T11:33:28;12.40;99.90
18444;DHT22;9350;53.176;8.194;2023-04-30T11:35:58;12.50;99.90
18444;DHT22;9350;53.176;8.194;2023-04-30T11:38:27;12.60;99.90
18444;DHT22;9350;53.176;8.194;2023-04-30T11:40:54;12.60;99.90
18444;DHT22;9350;53.176;8.194;2023-04-30T11:43:22;12.70;99.90
18444;DHT22;9350;53.176;8.194;2023-04-30T11:46:04;12.70;99.90
18444;DHT22;9350;53.176;8.194;2023-04-30T11:48:32;12.80;99.90
18444;DHT22;9350;53.176;8.194;2023-04-30T11:51:02;12.80;99.90
18444;DHT22;9350;53.176;8.194;2023-04-30T11:53:29;12.80;99.90
18444;DHT22;9350;53.176;8.194;2023-04-30T11:56:01;12.80;99.90
18444;DHT22;9350;53.176;8.194;2023-04-30T11:58:32;12.80;99.90
18444;DHT22;9350;53.176;8.194;2023-04-30T12:01:00;12.90;99.90
18444;DHT22;9350;53.176;8.194;2023-04-30T12:03:27;13.00;99.90
18444;DHT22;9350;53.176;8.194;2023-04-30T12:05:54;12.90;99.90
18444;DHT22;9350;53.176;8.194;2023-04-30T12:08:22;12.80;99.90
18444;DHT22;9350;53.176;8.194;2023-04-30T12:10:49;12.90;99.90
18444;DHT22;9350;53.176;8.194;2023-04-30T12:13:15;13.00;99.90
18444;DHT22;9350;53.176;8.194;2023-04-30T12:15:42;13.00;99.90
18444;DHT22;9350;53.176;8.194;2023-04-30T12:18:22;12.90;99.90
18444;DHT22;9350;53.176;8.194;2023-04-30T12:20:49;12.90;99.90
18444;DHT22;9350;53.176;8.194;2023-04-30T12:23:16;12.90;99.90
18444;DHT22;9350;53.176;8.194;2023-04-30T12:25:44;12.90;99.90
18444;DHT22;9350;53.176;8.194;2023-04-30T12:28:12;12.90;99.90
18444;DHT22;9350;53.176;8.194;2023-04-30T12:30:38;12.90;99.90
18444;DHT22;9350;53.176;8.194;2023-04-30T12:33:09;13.00;99.90
18444;DHT22;9350;53.176;8.194;2023-04-30T12:35:41;13.10;99.90
18444;DHT22;9350;53.176;8.194;2023-04-30T12:38:08;13.10;99.90
18444;DHT22;9350;53.176;8.194;2023-04-30T12:40:35;13.10;99.90
18444;DHT22;9350;53.176;8.194;2023-04-30T12:43:05;13.20;99.90
18444;DHT22;9350;53.176;8.194;2023-04-30T12:45:42;13.30;99.90
18444;DHT22;9350;53.176;8.194;2023-04-30T12:48:10;13.30;99.90
18444;DHT22;9350;53.176;8.194;2023-04-30T12:50:37;13.10;99.90
18444;DHT22;9350;53.176;8.194;2023-04-30T12:53:04;13.20;99.90
18444;DHT22;9350;53.176;8.194;2023-04-30T12:55:32;13.40;99.90
18444;DHT22;9350;53.176;8.194;2023-04-30T12:58:04;13.40;99.90
18444;DHT22;9350;53.176;8.194;2023-04-30T13:00:46;13.50;99.90
18444;DHT22;9350;53.176;8.194;2023-04-30T13:03:13;13.50;99.90
18444;DHT22;9350;53.176;8.194;2023-04-30T13:05:41;13.40;99.90
18444;DHT22;9350;53.176;8.194;2023-04-30T13:08:08;13.40;99.90
18444;DHT22;9350;53.176;8.194;2023-04-30T13:10:35;13.50;99.90
18444;DHT22;9350;53.176;8.194;2023-04-30T13:13:04;13.50;99.90
18444;DHT22;9350;53.176;8.194;2023-04-30T13:15:31;13.50;99.90
18444;DHT22;9350;53.176;8.194;2023-04-30T13:17:58;13.50;99.90
18444;DHT22;9350;53.176;8.194;2023-04-30T13:20:26;13.50;99.90
18444;DHT22;9350;53.176;8.194;2023-04-30T13:22:52;13.60;99.90
18444;DHT22;9350;53.176;8.194;2023-04-30T13:25:19;13.60;99.90
18444;DHT22;9350;53.176;8.194;2023-04-30T13:27:46;13.60;99.90
18444;DHT22;9350;53.176;8.194;2023-04-30T13:30:14;13.60;99.90
18444;DHT22;9350;53.176;8.194;2023-04-30T13:32:41;13.60;99.90
18444;DHT22;9350;53.176;8.194;2023-04-30T13:35:09;13.60;99.90
18444;DHT22;9350;53.176;8.194;2023-04-30T13:37:36;13.50;99.90
18444;DHT22;9350;53.176;8.194;2023-04-30T13:40:04;13.50;99.90
18444;DHT22;9350;53.176;8.194;2023-04-30T13:42:32;13.60;99.90
18444;DHT22;9350;53.176;8.194;2023-04-30T13:44:58;13.70;99.90
18444;DHT22;9350;53.176;8.194;2023-04-30T13:47:27;13.80;99.90
18444;DHT22;9350;53.176;8.194;2023-04-30T13:49:53;13.80;99.90
18444;DHT22;9350;53.176;8.194;2023-04-30T13:52:20;13.90;99.90
18444;DHT22;9350;53.176;8.194;2023-04-30T13:54:47;13.90;99.90
18444;DHT22;9350;53.176;8.194;2023-04-30T13:57:14;14.00;99.90
18444;DHT22;9350;53.176;8.194;2023-04-30T13:59:40;14.00;99.90
18444;DHT22;9350;53.176;8.194;2023-04-30T14:02:07;14.00;99.90
18444;DHT22;9350;53.176;8.194;2023-04-30T14:04:35;14.10;99.90
18444;DHT22;9350;53.176;8.194;2023-04-30T14:07:03;14.00;99.90
18444;DHT22;9350;53.176;8.194;2023-04-30T14:09:30;14.10;99.90
18444;DHT22;9350;53.176;8.194;2023-04-30T14:11:56;14.20;99.90
18444;DHT22;9350;53.176;8.194;2023-04-30T14:14:24;14.10;99.90
18444;DHT22;9350;53.176;8.194;2023-04-30T14:16:51;14.10;99.90
18444;DHT22;9350;53.176;8.194;2023-04-30T14:19:18;14.10;99.90
18444;DHT22;9350;53.176;8.194;2023-04-30T14:21:46;14.20;99.90
18444;DHT22;9350;53.176;8.194;2023-04-30T14:24:13;14.20;99.90
18444;DHT22;9350;53.176;8.194;2023-04-30T14:26:41;14.20;99.90
18444;DHT22;9350;53.176;8.194;2023-04-30T14:29:08;14.20;99.90
18444;DHT22;9350;53.176;8.194;2023-04-30T14:31:34;14.20;99.90
18444;DHT22;9350;53.176;8.194;2023-04-30T14:34:01;14.20;99.90
18444;DHT22;9350;53.176;8.194;2023-04-30T14:36:28;14.30;99.90
18444;DHT22;9350;53.176;8.194;2023-04-30T14:38:56;14.40;99.90
18444;DHT22;9350;53.176;8.194;2023-04-30T14:41:22;14.50;99.90
18444;DHT22;9350;53.176;8.194;2023-04-30T14:43:50;14.40;99.90
18444;DHT22;9350;53.176;8.194;2023-04-30T14:46:17;14.50;99.90
18444;DHT22;9350;53.176;8.194;2023-04-30T14:48:44;14.40;99.90
18444;DHT22;9350;53.176;8.194;2023-04-30T14:51:10;14.40;99.90
18444;DHT22;9350;53.176;8.194;2023-04-30T14:53:37;14.50;99.90
18444;DHT22;9350;53.176;8.194;2023-04-30T14:56:06;14.40;99.90
18444;DHT22;9350;53.176;8.194;2023-04-30T14:58:32;14.50;99.90
18444;DHT22;9350;53.176;8.194;2023-04-30T15:00:59;14.60;99.90
18444;DHT22;9350;53.176;8.194;2023-04-30T15:03:26;14.60;99.90
18444;DHT22;9350;53.176;8.194;2023-04-30T15:05:53;14.50;99.90
18444;DHT22;9350;53.176;8.194;2023-04-30T15:08:20;14.50;99.90
18444;DHT22;9350;53.176;8.194;2023-04-30T15:10:47;14.50;99.90
18444;DHT22;9350;53.176;8.194;2023-04-30T15:13:15;14.50;99.90
18444;DHT22;9350;53.176;8.194;2023-04-30T15:15:42;14.60;99.90
18444;DHT22;9350;53.176;8.194;2023-04-30T15:18:11;14.60;99.90
18444;DHT22;9350;53.176;8.194;2023-04-30T15:20:38;14.60;99.90
18444;DHT22;9350;53.176;8.194;2023-04-30T15:23:05;14.50;99.90
18444;DHT22;9350;53.176;8.194;2023-04-30T15:25:32;14.60;99.90
18444;DHT22;9350;53.176;8.194;2023-04-30T15:27:59;14.70;99.90
18444;DHT22;9350;53.176;8.194;2023-04-30T15:30:27;14.70;99.90
18444;DHT22;9350;53.176;8.194;2023-04-30T15:32:54;14.70;99.90
18444;DHT22;9350;53.176;8.194;2023-04-30T15:35:21;14.80;99.90
18444;DHT22;9350;53.176;8.194;2023-04-30T15:37:48;14.70;99.90
18444;DHT22;9350;53.176;8.194;2023-04-30T15:40:15;14.70;99.90
18444;DHT22;9350;53.176;8.194;2023-04-30T15:42:42;14.60;99.90
18444;DHT22;9350;53.176;8.194;2023-04-30T15:45:09;14.60;99.90
18444;DHT22;9350;53.176;8.194;2023-04-30T15:47:38;14.50;99.90
18444;DHT22;9350;53.176;8.194;2023-04-30T15:50:06;14.50;99.90
18444;DHT22;9350;53.176;8.194;2023-04-30T15:52:33;14.40;99.90
18444;DHT22;9350;53.176;8.194;2023-04-30T15:55:00;14.30;99.90
18444;DHT22;9350;53.176;8.194;2023-04-30T15:57:27;14.20;99.90
18444;DHT22;9350;53.176;8.194;2023-04-30T15:59:53;14.30;99.90